sensor_id;sensor_type;location;lat;lon;timestamp;temperature;humidity
16846;DHT22;8539;53.188;8.696;2023-11-19T00:01:32;6.70;99.90
16846;DHT22;8539;53.188;8.696;2023-11-19T00:03:58;6.70;99.90
16846;DHT22;8539;53.188;8.696;2023-11-19T00:06:24;6.70;99.90
16846;DHT22;8539;53.188;8.696;2023-11-19T00:08:51;6.70;99.90
16846;DHT22;8539;53.188;8.696;2023-11-19T00:11:17;6.70;99.90
16846;DHT22;8539;53.188;8.696;2023-11-19T00:13:43;6.80;99.90
16846;DHT22;8539;53.188;8.696;2023-11-19T00:16:10;6.80;99.90
16846;DHT22;8539;53.188;8.696;2023-11-19T00:18:36;6.80;99.90
16846;DHT22;8539;53.188;8.696;2023-11-19T00:21:02;6.90;99.90
16846;DHT22;8539;53.188;8.696;2023-11-19T00:23:28;6.90;99.90
16846;DHT22;8539;53.188;8.696;2023-11-19T00:25:54;6.90;99.90
16846;DHT22;8539;53.188;8.696;2023-11-19T00:28:21;6.90;99.90
16846;DHT22;8539;53.188;8.696;2023-11-19T00:30:47;7.00;99.90
16846;DHT22;8539;53.188;8.696;2023-11-19T00:33:13;7.00;99.90
16846;DHT22;8539;53.188;8.696;2023-11-19T00:35:39;7.00;99.90
16846;DHT22;8539;53.188;8.696;2023-11-19T00:38:05;7.00;99.90
16846;DHT22;8539;53.188;8.696;2023-11-19T00:40:32;7.00;99.90
16846;DHT22;8539;53.188;8.696;2023-11-19T00:42:58;7.00;99.90
16846;DHT22;8539;53.188;8.696;2023-11-19T00:45:25;7.00;99.90
16846;DHT22;8539;53.188;8.696;2023-11-19T00:47:51;7.10;99.90
16846;DHT22;8539;53.188;8.696;2023-11-19T00:50:17;7.10;99.90
16846;DHT22;8539;53.188;8.696;2023-11-19T00:52:44;7.10;99.90
16846;DHT22;8539;53.188;8.696;2023-11-19T00:55:10;7.10;99.90
16846;DHT22;8539;53.188;8.696;2023-11-19T00:57:37;7.10;99.90
16846;DHT22;8539;53.188;8.696;2023-11-19T01:00:05;7.20;99.90
16846;DHT22;8539;53.188;8.696;2023-11-19T01:03:01;7.20;99.90
16846;DHT22;8539;53.188;8.696;2023-11-19T01:05:27;7.20;99.90
16846;DHT22;8539;53.188;8.696;2023-11-19T01:07:54;7.20;99.90
16846;DHT22;8539;53.188;8.696;2023-11-19T01:10:20;7.20;99.90
16846;DHT22;8539;53.188;8.696;2023-11-19T01:12:50;7.30;99.90
16846;DHT22;8539;53.188;8.696;2023-11-19T01:15:17;7.30;99.90
16846;DHT22;8539;53.188;8.696;2023-11-19T01:17:45;7.30;99.90
16846;DHT22;8539;53.188;8.696;2023-11-19T01:20:11;7.40;99.90
16846;DHT22;8539;53.188;8.696;2023-11-19T01:22:39;7.40;99.90
16846;DHT22;8539;53.188;8.696;2023-11-19T01:25:06;7.40;99.90
16846;DHT22;8539;53.188;8.696;2023-11-19T01:27:33;7.40;99.90
16846;DHT22;8539;53.188;8.696;2023-11-19T01:30:03;7.40;99.90
16846;DHT22;8539;53.188;8.696;2023-11-19T01:32:29;7.40;99.90
16846;DHT22;8539;53.188;8.696;2023-11-19T01:34:55;7.50;99.90
16846;DHT22;8539;53.188;8.696;2023-11-19T01:37:22;7.50;99.90
16846;DHT22;8539;53.188;8.696;2023-11-19T01:39:48;7.50;99.90
16846;DHT22;8539;53.188;8.696;2023-11-19T01:42:14;7.50;99.90
16846;DHT22;8539;53.188;8.696;2023-11-19T01:44:41;7.60;99.90
16846;DHT22;8539;53.188;8.696;2023-11-19T01:47:08;7.60;99.90
16846;DHT22;8539;53.188;8.696;2023-11-19T01:49:34;7.70;99.90
16846;DHT22;8539;53.188;8.696;2023-11-19T01:52:00;7.70;99.90
16846;DHT22;8539;53.188;8.696;2023-11-19T01:54:28;7.70;99.90
16846;DHT22;8539;53.188;8.696;2023-11-19T01:56:56;7.80;99.90
16846;DHT22;8539;53.188;8.696;2023-11-19T01:59:23;7.80;99.90
16846;DHT22;8539;53.188;8.696;2023-11-19T02:01:55;7.90;99.90
16846;DHT22;8539;53.188;8.696;2023-11-19T02:04:22;8.00;99.90
16846;DHT22;8539;53.188;8.696;2023-11-19T02:06:51;8.10;99.90
16846;DHT22;8539;53.188;8.696;2023-11-19T02:09:20;8.20;99.90
16846;DHT22;8539;53.188;8.696;2023-11-19T02:11:46;8.30;99.90
16846;DHT22;8539;53.188;8.696;2023-11-19T02:14:17;8.40;99.90
16846;DHT22;8539;53.188;8.696;2023-11-19T02:16:44;8.40;99.90
16846;DHT22;8539;53.188;8.696;2023-11-19T02:19:10;8.50;99.90
16846;DHT22;8539;53.188;8.696;2023-11-19T02:21:37;8.60;99.90
16846;DHT22;8539;53.188;8.696;2023-11-19T02:24:08;8.70;99.90
16846;DHT22;8539;53.188;8.696;2023-11-19T02:26:59;8.70;99.90
16846;DHT22;8539;53.188;8.696;2023-11-19T02:29:28;8.80;99.90
16846;DHT22;8539;53.188;8.696;2023-11-19T02:31:54;8.90;99.90
16846;DHT22;8539;53.188;8.696;2023-11-19T02:34:22;9.00;99.90
16846;DHT22;8539;53.188;8.696;2023-11-19T02:36:48;9.00;99.90
16846;DHT22;8539;53.188;8.696;2023-11-19T02:39:15;9.10;99.90
16846;DHT22;8539;53.188;8.696;2023-11-19T02:41:47;9.20;99.90
16846;DHT22;8539;53.188;8.696;2023-11-19T02:44:16;9.30;99.90
16846;DHT22;8539;53.188;8.696;2023-11-19T02:46:43;9.40;99.90
16846;DHT22;8539;53.188;8.696;2023-11-19T02:49:09;9.50;99.90
16846;DHT22;8539;53.188;8.696;2023-11-19T02:51:35;9.60;99.90
16846;DHT22;8539;53.188;8.696;2023-11-19T02:54:02;9.60;99.90
16846;DHT22;8539;53.188;8.696;2023-11-19T02:56:29;9.70;99.90
16846;DHT22;8539;53.188;8.696;2023-11-19T02:59:00;9.80;99.90
16846;DHT22;8539;53.188;8.696;2023-11-19T03:01:33;9.80;99.90
16846;DHT22;8539;53.188;8.696;2023-11-19T03:04:02;9.80;99.90
16846;DHT22;8539;53.188;8.696;2023-11-19T03:06:28;9.90;99.90
16846;DHT22;8539;53.188;8.696;2023-11-19T03:08:55;9.90;99.90
16846;DHT22;8539;53.188;8.696;2023-11-19T03:11:21;9.90;99.90
16846;DHT22;8539;53.188;8.696;2023-11-19T03:13:47;10.00;99.90
16846;DHT22;8539;53.188;8.696;2023-11-19T03:16:13;10.00;99.90
16846;DHT22;8539;53.188;8.696;2023-11-19T03:18:39;10.10;99.90
16846;DHT22;8539;53.188;8.696;2023-11-19T03:21:06;10.10;99.90
16846;DHT22;8539;53.188;8.696;2023-11-19T03:23:34;10.10;99.90
16846;DHT22;8539;53.188;8.696;2023-11-19T03:26:01;10.10;99.90
16846;DHT22;8539;53.188;8.696;2023-11-19T03:28:31;10.10;99.90
16846;DHT22;8539;53.188;8.696;2023-11-19T03:30:57;10.20;99.90
16846;DHT22;8539;53.188;8.696;2023-11-19T03:33:24;10.20;99.90
16846;DHT22;8539;53.188;8.696;2023-11-19T03:35:51;10.20;99.90
16846;DHT22;8539;53.188;8.696;2023-11-19T03:38:18;10.20;99.90
16846;DHT22;8539;53.188;8.696;2023-11-19T03:40:44;10.30;99.90
16846;DHT22;8539;53.188;8.696;2023-11-19T03:43:10;10.30;99.90
16846;DHT22;8539;53.188;8.696;2023-11-19T03:45:36;10.30;99.90
16846;DHT22;8539;53.188;8.696;2023-11-19T03:48:02;10.40;99.90
16846;DHT22;8539;53.188;8.696;2023-11-19T03:50:28;10.40;99.90
16846;DHT22;8539;53.188;8.696;2023-11-19T03:52:55;10.40;99.90
16846;DHT22;8539;53.188;8.696;2023-11-19T03:55:21;10.40;99.90
16846;DHT22;8539;53.188;8.696;2023-11-19T03:57:47;10.50;99.90
16846;DHT22;8539;53.188;8.696;2023-11-19T04:00:14;10.50;99.90
16846;DHT22;8539;53.188;8.696;2023-11-19T04:02:41;10.50;99.90
16846;DHT22;8539;53.188;8.696;2023-11-19T04:05:07;10.60;99.90
16846;DHT22;8539;53.188;8.696;2023-11-19T04:07:33;10.60;99.90
16846;DHT22;8539;53.188;8.696;2023-11-19T04:10:00;10.60;99.90
16846;DHT22;8539;53.188;8.696;2023-11-19T04:12:26;10.60;99.90
16846;DHT22;8539;53.188;8.696;2023-11-19T04:14:52;10.60;99.90
16846;DHT22;8539;53.188;8.696;2023-11-19T04:17:18;10.70;99.90
16846;DHT22;8539;53.188;8.696;2023-11-19T04:19:44;10.70;99.90
16846;DHT22;8539;53.188;8.696;2023-11-19T04:22:10;10.70;99.90
16846;DHT22;8539;53.188;8.696;2023-11-19T04:24:37;10.70;99.90
16846;DHT22;8539;53.188;8.696;2023-11-19T04:27:04;10.80;99.90
16846;DHT22;8539;53.188;8.696;2023-11-19T04:29:32;10.80;99.90
16846;DHT22;8539;53.188;8.696;2023-11-19T04:31:58;10.80;99.90
16846;DHT22;8539;53.188;8.696;2023-11-19T04:34:26;10.80;99.90
16846;DHT22;8539;53.188;8.696;2023-11-19T04:36:53;10.90;99.90
16846;DHT22;8539;53.188;8.696;2023-11-19T04:39:19;10.90;99.90
16846;DHT22;8539;53.188;8.696;2023-11-19T04:41:49;10.90;99.90
16846;DHT22;8539;53.188;8.696;2023-11-19T04:44:17;10.90;99.90
16846;DHT22;8539;53.188;8.696;2023-11-19T04:46:43;10.90;99.90
16846;DHT22;8539;53.188;8.696;2023-11-19T04:49:10;10.90;99.90
16846;DHT22;8539;53.188;8.696;2023-11-19T04:51:45;11.00;99.90
16846;DHT22;8539;53.188;8.696;2023-11-19T04:54:14;11.00;99.90
16846;DHT22;8539;53.188;8.696;2023-11-19T04:56:40;11.00;99.90
16846;DHT22;8539;53.188;8.696;2023-11-19T04:59:10;11.00;99.90
16846;DHT22;8539;53.188;8.696;2023-11-19T05:01:37;11.00;99.90
16846;DHT22;8539;53.188;8.696;2023-11-19T05:04:03;11.00;99.90
16846;DHT22;8539;53.188;8.696;2023-11-19T05:06:30;11.00;99.90
16846;DHT22;8539;53.188;8.696;2023-11-19T05:08:59;11.10;99.90
16846;DHT22;8539;53.188;8.696;2023-11-19T05:11:27;11.10;99.90
16846;DHT22;8539;53.188;8.696;2023-11-19T05:13:54;11.10;99.90
16846;DHT22;8539;53.188;8.696;2023-11-19T05:16:20;11.10;99.90
16846;DHT22;8539;53.188;8.696;2023-11-19T05:18:47;11.10;99.90
16846;DHT22;8539;53.188;8.696;2023-11-19T05:21:13;11.10;99.90
16846;DHT22;8539;53.188;8.696;2023-11-19T05:23:40;11.10;99.90
16846;DHT22;8539;53.188;8.696;2023-11-19T05:26:08;11.10;99.90
16846;DHT22;8539;53.188;8.696;2023-11-19T05:28:34;11.10;99.90
16846;DHT22;8539;53.188;8.696;2023-11-19T05:31:01;11.10;99.90
16846;DHT22;8539;53.188;8.696;2023-11-19T05:33:27;11.20;99.90
16846;DHT22;8539;53.188;8.696;2023-11-19T05:35:53;11.20;99.90
16846;DHT22;8539;53.188;8.696;2023-11-19T05:38:19;11.20;99.90
16846;DHT22;8539;53.188;8.696;2023-11-19T05:40:47;11.20;99.90
16846;DHT22;8539;53.188;8.696;2023-11-19T05:43:15;11.20;99.90
16846;DHT22;8539;53.188;8.696;2023-11-19T05:45:42;11.20;99.90
16846;DHT22;8539;53.188;8.696;2023-11-19T05:48:09;11.20;99.90
16846;DHT22;8539;53.188;8.696;2023-11-19T05:50:35;11.20;99.90
16846;DHT22;8539;53.188;8.696;2023-11-19T05:53:01;11.20;99.90
16846;DHT22;8539;53.188;8.696;2023-11-19T05:55:28;11.20;99.90
16846;DHT22;8539;53.188;8.696;2023-11-19T05:57:54;11.20;99.90
16846;DHT22;8539;53.188;8.696;2023-11-19T06:00:21;11.20;99.90
16846;DHT22;8539;53.188;8.696;2023-11-19T06:02:47;11.20;99.90
16846;DHT22;8539;53.188;8.696;2023-11-19T06:05:13;11.20;99.90
16846;DHT22;8539;53.188;8.696;2023-11-19T06:07:39;11.20;99.90
16846;DHT22;8539;53.188;8.696;2023-11-19T06:10:07;11.20;99.90
16846;DHT22;8539;53.188;8.696;2023-11-19T06:12:36;11.20;99.90
16846;DHT22;8539;53.188;8.696;2023-11-19T06:15:05;11.20;99.90
16846;DHT22;8539;53.188;8.696;2023-11-19T06:17:32;11.20;99.90
16846;DHT22;8539;53.188;8.696;2023-11-19T06:19:58;11.20;99.90
16846;DHT22;8539;53.188;8.696;2023-11-19T06:22:24;11.20;99.90
16846;DHT22;8539;53.188;8.696;2023-11-19T06:24:50;11.20;99.90
16846;DHT22;8539;53.188;8.696;2023-11-19T06:27:17;11.20;99.90
16846;DHT22;8539;53.188;8.696;2023-11-19T06:29:43;11.20;99.90
16846;DHT22;8539;53.188;8.696;2023-11-19T06:32:09;11.20;99.90
16846;DHT22;8539;53.188;8.696;2023-11-19T06:34:35;11.20;99.90
16846;DHT22;8539;53.188;8.696;2023-11-19T06:37:02;11.20;99.90
16846;DHT22;8539;53.188;8.696;2023-11-19T06:39:30;11.20;99.90
16846;DHT22;8539;53.188;8.696;2023-11-19T06:41:56;11.10;99.90
16846;DHT22;8539;53.188;8.696;2023-11-19T06:44:22;11.10;99.90
16846;DHT22;8539;53.188;8.696;2023-11-19T06:46:50;11.10;99.90
16846;DHT22;8539;53.188;8.696;2023-11-19T06:49:16;11.10;99.90
16846;DHT22;8539;53.188;8.696;2023-11-19T06:51:43;11.10;99.90
16846;DHT22;8539;53.188;8.696;2023-11-19T06:54:10;11.10;99.90
16846;DHT22;8539;53.188;8.696;2023-11-19T06:56:36;11.10;99.90
16846;DHT22;8539;53.188;8.696;2023-11-19T06:59:03;11.10;99.90
16846;DHT22;8539;53.188;8.696;2023-11-19T07:01:34;11.10;99.90
16846;DHT22;8539;53.188;8.696;2023-11-19T07:04:02;11.10;99.90
16846;DHT22;8539;53.188;8.696;2023-11-19T07:06:37;11.10;99.90
16846;DHT22;8539;53.188;8.696;2023-11-19T07:09:04;11.10;99.90
16846;DHT22;8539;53.188;8.696;2023-11-19T07:11:39;11.10;99.90
16846;DHT22;8539;53.188;8.696;2023-11-19T07:14:06;11.10;99.90
16846;DHT22;8539;53.188;8.696;2023-11-19T07:16:35;11.10;99.90
16846;DHT22;8539;53.188;8.696;2023-11-19T07:19:05;11.00;99.90
16846;DHT22;8539;53.188;8.696;2023-11-19T07:21:32;11.10;99.90
16846;DHT22;8539;53.188;8.696;2023-11-19T07:24:05;11.10;99.90
16846;DHT22;8539;53.188;8.696;2023-11-19T07:26:31;11.10;99.90
16846;DHT22;8539;53.188;8.696;2023-11-19T07:28:57;11.10;99.90
16846;DHT22;8539;53.188;8.696;2023-11-19T07:31:24;11.20;99.90
16846;DHT22;8539;53.188;8.696;2023-11-19T07:33:50;11.10;99.90
16846;DHT22;8539;53.188;8.696;2023-11-19T07:36:16;11.20;99.90
16846;DHT22;8539;53.188;8.696;2023-11-19T07:38:42;11.10;99.90
16846;DHT22;8539;53.188;8.696;2023-11-19T07:41:09;11.10;99.90
16846;DHT22;8539;53.188;8.696;2023-11-19T07:43:43;11.10;99.90
16846;DHT22;8539;53.188;8.696;2023-11-19T07:46:13;11.10;99.90
16846;DHT22;8539;53.188;8.696;2023-11-19T07:48:40;11.20;99.90
16846;DHT22;8539;53.188;8.696;2023-11-19T07:51:07;11.20;99.90
16846;DHT22;8539;53.188;8.696;2023-11-19T07:53:33;11.20;99.90
16846;DHT22;8539;53.188;8.696;2023-11-19T07:55:59;11.30;99.90
16846;DHT22;8539;53.188;8.696;2023-11-19T07:58:25;11.30;99.90
16846;DHT22;8539;53.188;8.696;2023-11-19T08:00:51;11.40;99.90
16846;DHT22;8539;53.188;8.696;2023-11-19T08:03:17;11.40;99.90
16846;DHT22;8539;53.188;8.696;2023-11-19T08:05:48;11.50;99.90
16846;DHT22;8539;53.188;8.696;2023-11-19T08:08:14;11.50;99.90
16846;DHT22;8539;53.188;8.696;2023-11-19T08:10:40;11.50;99.90
16846;DHT22;8539;53.188;8.696;2023-11-19T08:13:06;11.50;99.90
16846;DHT22;8539;53.188;8.696;2023-11-19T08:15:33;11.50;99.90
16846;DHT22;8539;53.188;8.696;2023-11-19T08:17:59;11.50;99.90
16846;DHT22;8539;53.188;8.696;2023-11-19T08:20:25;11.60;99.90
16846;DHT22;8539;53.188;8.696;2023-11-19T08:22:51;11.60;99.90
16846;DHT22;8539;53.188;8.696;2023-11-19T08:25:17;11.60;99.90
16846;DHT22;8539;53.188;8.696;2023-11-19T08:27:44;11.60;99.90
16846;DHT22;8539;53.188;8.696;2023-11-19T08:30:10;11.70;99.90
16846;DHT22;8539;53.188;8.696;2023-11-19T08:32:37;11.60;99.90
16846;DHT22;8539;53.188;8.696;2023-11-19T08:35:03;11.60;99.90
16846;DHT22;8539;53.188;8.696;2023-11-19T08:37:29;11.60;99.90
16846;DHT22;8539;53.188;8.696;2023-11-19T08:39:55;11.60;99.90
16846;DHT22;8539;53.188;8.696;2023-11-19T08:42:21;11.60;99.90
16846;DHT22;8539;53.188;8.696;2023-11-19T08:44:50;11.70;99.90
16846;DHT22;8539;53.188;8.696;2023-11-19T08:47:19;11.70;99.90
16846;DHT22;8539;53.188;8.696;2023-11-19T08:49:46;11.80;99.90
16846;DHT22;8539;53.188;8.696;2023-11-19T08:52:12;11.80;99.90
16846;DHT22;8539;53.188;8.696;2023-11-19T08:54:42;11.90;99.90
16846;DHT22;8539;53.188;8.696;2023-11-19T08:57:08;11.90;99.90
16846;DHT22;8539;53.188;8.696;2023-11-19T08:59:35;11.90;99.90
16846;DHT22;8539;53.188;8.696;2023-11-19T09:02:04;11.90;99.90
16846;DHT22;8539;53.188;8.696;2023-11-19T09:04:30;11.90;99.90
16846;DHT22;8539;53.188;8.696;2023-11-19T09:06:59;12.00;99.90
16846;DHT22;8539;53.188;8.696;2023-11-19T09:09:25;12.00;99.90
16846;DHT22;8539;53.188;8.696;2023-11-19T09:11:51;12.10;99.90
16846;DHT22;8539;53.188;8.696;2023-11-19T09:14:17;12.10;99.90
16846;DHT22;8539;53.188;8.696;2023-11-19T09:16:52;12.20;99.90
16846;DHT22;8539;53.188;8.696;2023-11-19T09:19:18;12.10;99.90
16846;DHT22;8539;53.188;8.696;2023-11-19T09:21:44;12.10;99.90
16846;DHT22;8539;53.188;8.696;2023-11-19T09:24:11;12.20;99.90
16846;DHT22;8539;53.188;8.696;2023-11-19T09:26:37;12.20;99.90
16846;DHT22;8539;53.188;8.696;2023-11-19T09:29:06;12.20;99.90
16846;DHT22;8539;53.188;8.696;2023-11-19T09:31:32;12.20;99.90
16846;DHT22;8539;53.188;8.696;2023-11-19T09:33:58;12.10;99.90
16846;DHT22;8539;53.188;8.696;2023-11-19T09:36:24;12.10;99.90
16846;DHT22;8539;53.188;8.696;2023-11-19T09:38:50;12.00;99.90
16846;DHT22;8539;53.188;8.696;2023-11-19T09:41:16;12.00;99.90
16846;DHT22;8539;53.188;8.696;2023-11-19T09:43:42;12.00;99.90
16846;DHT22;8539;53.188;8.696;2023-11-19T09:46:09;12.10;99.90
16846;DHT22;8539;53.188;8.696;2023-11-19T09:48:38;12.10;99.90
16846;DHT22;8539;53.188;8.696;2023-11-19T09:51:05;12.20;99.90
16846;DHT22;8539;53.188;8.696;2023-11-19T09:53:32;12.20;99.90
16846;DHT22;8539;53.188;8.696;2023-11-19T09:56:00;12.20;99.90
16846;DHT22;8539;53.188;8.696;2023-11-19T09:58:32;12.20;99.90
16846;DHT22;8539;53.188;8.696;2023-11-19T10:00:59;12.20;99.90
16846;DHT22;8539;53.188;8.696;2023-11-19T10:03:34;12.20;99.90
16846;DHT22;8539;53.188;8.696;2023-11-19T10:06:07;12.20;99.90
16846;DHT22;8539;53.188;8.696;2023-11-19T10:08:36;12.20;99.90
16846;DHT22;8539;53.188;8.696;2023-11-19T10:11:03;12.20;99.90
16846;DHT22;8539;53.188;8.696;2023-11-19T10:13:29;12.10;99.90
16846;DHT22;8539;53.188;8.696;2023-11-19T10:15:56;12.10;99.90
16846;DHT22;8539;53.188;8.696;2023-11-19T10:18:26;12.00;99.90
16846;DHT22;8539;53.188;8.696;2023-11-19T10:20:56;12.00;99.90
16846;DHT22;8539;53.188;8.696;2023-11-19T10:23:23;12.00;99.90
16846;DHT22;8539;53.188;8.696;2023-11-19T10:25:53;11.90;99.90
16846;DHT22;8539;53.188;8.696;2023-11-19T10:28:19;12.00;99.90
16846;DHT22;8539;53.188;8.696;2023-11-19T10:30:48;12.00;99.90
16846;DHT22;8539;53.188;8.696;2023-11-19T10:33:14;12.00;99.90
16846;DHT22;8539;53.188;8.696;2023-11-19T10:38:19;12.00;99.90
16846;DHT22;8539;53.188;8.696;2023-11-19T10:40:45;12.00;99.90
16846;DHT22;8539;53.188;8.696;2023-11-19T10:43:12;11.90;99.90
16846;DHT22;8539;53.188;8.696;2023-11-19T10:45:39;11.90;99.90
16846;DHT22;8539;53.188;8.696;2023-11-19T10:48:06;11.90;99.90
16846;DHT22;8539;53.188;8.696;2023-11-19T10:50:34;11.90;99.90
16846;DHT22;8539;53.188;8.696;2023-11-19T10:53:00;11.80;99.90
16846;DHT22;8539;53.188;8.696;2023-11-19T10:55:32;11.80;99.90
16846;DHT22;8539;53.188;8.696;2023-11-19T10:58:03;11.80;99.90
16846;DHT22;8539;53.188;8.696;2023-11-19T11:00:42;11.80;99.90
16846;DHT22;8539;53.188;8.696;2023-11-19T11:03:20;11.80;99.90
16846;DHT22;8539;53.188;8.696;2023-11-19T11:05:50;11.80;99.90
16846;DHT22;8539;53.188;8.696;2023-11-19T11:08:17;11.80;99.90
16846;DHT22;8539;53.188;8.696;2023-11-19T11:10:46;11.70;99.90
16846;DHT22;8539;53.188;8.696;2023-11-19T11:13:14;11.70;99.90
16846;DHT22;8539;53.188;8.696;2023-11-19T11:15:40;11.80;99.90
16846;DHT22;8539;53.188;8.696;2023-11-19T11:18:09;11.80;99.90
16846;DHT22;8539;53.188;8.696;2023-11-19T11:20:35;11.80;99.90
16846;DHT22;8539;53.188;8.696;2023-11-19T11:37:13;12.50;99.90
16846;DHT22;8539;53.188;8.696;2023-11-19T11:39:42;12.50;99.90
16846;DHT22;8539;53.188;8.696;2023-11-19T11:45:06;12.20;99.90
16846;DHT22;8539;53.188;8.696;2023-11-19T11:50:18;12.00;99.90
16846;DHT22;8539;53.188;8.696;2023-11-19T11:55:28;11.90;99.90
16846;DHT22;8539;53.188;8.696;2023-11-19T11:57:59;11.90;99.90
16846;DHT22;8539;53.188;8.696;2023-11-19T12:02:56;11.80;99.90
16846;DHT22;8539;53.188;8.696;2023-11-19T12:05:23;11.80;99.90
16846;DHT22;8539;53.188;8.696;2023-11-19T12:07:56;11.80;99.90
16846;DHT22;8539;53.188;8.696;2023-11-19T12:10:24;11.80;99.90
16846;DHT22;8539;53.188;8.696;2023-11-19T12:12:57;11.80;99.90
16846;DHT22;8539;53.188;8.696;2023-11-19T12:15:23;11.80;99.90
16846;DHT22;8539;53.188;8.696;2023-11-19T12:17:55;11.70;99.90
16846;DHT22;8539;53.188;8.696;2023-11-19T12:20:31;11.70;99.90
16846;DHT22;8539;53.188;8.696;2023-11-19T12:23:14;11.70;99.90
16846;DHT22;8539;53.188;8.696;2023-11-19T12:29:20;11.60;99.90
16846;DHT22;8539;53.188;8.696;2023-11-19T12:31:54;11.60;99.90
16846;DHT22;8539;53.188;8.696;2023-11-19T12:34:20;11.60;99.90
16846;DHT22;8539;53.188;8.696;2023-11-19T12:36:49;11.60;99.90
16846;DHT22;8539;53.188;8.696;2023-11-19T12:39:15;11.60;99.90
16846;DHT22;8539;53.188;8.696;2023-11-19T12:41:51;11.60;99.90
16846;DHT22;8539;53.188;8.696;2023-11-19T12:44:17;11.60;99.90
16846;DHT22;8539;53.188;8.696;2023-11-19T12:46:43;11.50;99.90
16846;DHT22;8539;53.188;8.696;2023-11-19T12:49:11;11.50;99.90
16846;DHT22;8539;53.188;8.696;2023-11-19T12:51:37;11.50;99.90
16846;DHT22;8539;53.188;8.696;2023-11-19T12:54:03;11.50;99.90
16846;DHT22;8539;53.188;8.696;2023-11-19T12:56:30;11.50;99.90
16846;DHT22;8539;53.188;8.696;2023-11-19T12:58:56;11.50;99.90
16846;DHT22;8539;53.188;8.696;2023-11-19T13:01:24;11.40;99.90
16846;DHT22;8539;53.188;8.696;2023-11-19T13:03:50;11.40;99.90
16846;DHT22;8539;53.188;8.696;2023-11-19T13:06:17;11.40;99.90
16846;DHT22;8539;53.188;8.696;2023-11-19T13:08:46;11.30;99.90
16846;DHT22;8539;53.188;8.696;2023-11-19T13:11:30;11.30;99.90
16846;DHT22;8539;53.188;8.696;2023-11-19T13:14:01;11.20;99.90
16846;DHT22;8539;53.188;8.696;2023-11-19T13:16:30;11.20;99.90
16846;DHT22;8539;53.188;8.696;2023-11-19T13:18:57;11.10;99.90
16846;DHT22;8539;53.188;8.696;2023-11-19T13:21:24;11.10;99.90
16846;DHT22;8539;53.188;8.696;2023-11-19T13:23:50;11.20;99.90
16846;DHT22;8539;53.188;8.696;2023-11-19T13:26:17;11.50;99.90
16846;DHT22;8539;53.188;8.696;2023-11-19T13:28:43;11.90;99.90
16846;DHT22;8539;53.188;8.696;2023-11-19T13:31:09;12.40;99.90
16846;DHT22;8539;53.188;8.696;2023-11-19T13:33:36;12.90;99.90
16846;DHT22;8539;53.188;8.696;2023-11-19T13:36:06;13.40;99.90
16846;DHT22;8539;53.188;8.696;2023-11-19T13:38:33;13.50;99.90
16846;DHT22;8539;53.188;8.696;2023-11-19T13:41:01;13.50;99.90
16846;DHT22;8539;53.188;8.696;2023-11-19T13:43:27;13.50;99.90
16846;DHT22;8539;53.188;8.696;2023-11-19T13:45:55;13.60;99.90
16846;DHT22;8539;53.188;8.696;2023-11-19T13:48:21;13.60;99.90
16846;DHT22;8539;53.188;8.696;2023-11-19T13:50:47;13.30;99.90
16846;DHT22;8539;53.188;8.696;2023-11-19T13:53:13;13.00;99.90
16846;DHT22;8539;53.188;8.696;2023-11-19T13:55:40;12.60;99.90
16846;DHT22;8539;53.188;8.696;2023-11-19T13:58:06;12.40;99.90
16846;DHT22;8539;53.188;8.696;2023-11-19T14:00:32;12.10;99.90
16846;DHT22;8539;53.188;8.696;2023-11-19T14:02:58;11.90;99.90
16846;DHT22;8539;53.188;8.696;2023-11-19T14:05:24;11.80;99.90
16846;DHT22;8539;53.188;8.696;2023-11-19T14:07:50;11.70;99.90
16846;DHT22;8539;53.188;8.696;2023-11-19T14:10:17;11.60;99.90
16846;DHT22;8539;53.188;8.696;2023-11-19T14:12:44;11.50;99.90
16846;DHT22;8539;53.188;8.696;2023-11-19T14:15:12;11.40;99.90
16846;DHT22;8539;53.188;8.696;2023-11-19T14:17:43;11.40;99.90
16846;DHT22;8539;53.188;8.696;2023-11-19T14:20:09;11.30;99.90
16846;DHT22;8539;53.188;8.696;2023-11-19T14:22:40;11.30;99.90
16846;DHT22;8539;53.188;8.696;2023-11-19T14:25:09;11.30;99.90
16846;DHT22;8539;53.188;8.696;2023-11-19T14:27:39;11.20;99.90
16846;DHT22;8539;53.188;8.696;2023-11-19T14:30:07;11.20;99.90
16846;DHT22;8539;53.188;8.696;2023-11-19T14:32:35;11.20;99.90
16846;DHT22;8539;53.188;8.696;2023-11-19T14:35:01;11.20;99.90
16846;DHT22;8539;53.188;8.696;2023-11-19T14:37:27;11.20;99.90
16846;DHT22;8539;53.188;8.696;2023-11-19T14:39:53;11.20;99.90
16846;DHT22;8539;53.188;8.696;2023-11-19T14:42:19;11.10;99.90
16846;DHT22;8539;53.188;8.696;2023-11-19T14:44:45;11.20;99.90
16846;DHT22;8539;53.188;8.696;2023-11-19T14:47:11;11.20;99.90
16846;DHT22;8539;53.188;8.696;2023-11-19T14:49:37;11.10;99.90
16846;DHT22;8539;53.188;8.696;2023-11-19T14:52:04;11.10;99.90
16846;DHT22;8539;53.188;8.696;2023-11-19T14:54:30;11.10;99.90
16846;DHT22;8539;53.188;8.696;2023-11-19T14:56:57;11.10;99.90
16846;DHT22;8539;53.188;8.696;2023-11-19T14:59:25;11.10;99.90
16846;DHT22;8539;53.188;8.696;2023-11-19T15:01:51;11.10;99.90
16846;DHT22;8539;53.188;8.696;2023-11-19T15:04:17;11.10;99.90
16846;DHT22;8539;53.188;8.696;2023-11-19T15:06:43;11.10;99.90
16846;DHT22;8539;53.188;8.696;2023-11-19T15:09:09;11.00;99.90
16846;DHT22;8539;53.188;8.696;2023-11-19T15:11:42;11.00;99.90
16846;DHT22;8539;53.188;8.696;2023-11-19T15:14:08;11.00;99.90
16846;DHT22;8539;53.188;8.696;2023-11-19T15:16:35;11.00;99.90
16846;DHT22;8539;53.188;8.696;2023-11-19T15:19:01;10.90;99.90
16846;DHT22;8539;53.188;8.696;2023-11-19T15:21:30;10.90;99.90
16846;DHT22;8539;53.188;8.696;2023-11-19T15:23:56;10.90;99.90
16846;DHT22;8539;53.188;8.696;2023-11-19T15:26:22;10.90;99.90
16846;DHT22;8539;53.188;8.696;2023-11-19T15:28:48;10.80;99.90
16846;DHT22;8539;53.188;8.696;2023-11-19T15:31:14;10.80;99.90
16846;DHT22;8539;53.188;8.696;2023-11-19T15:33:42;10.80;99.90
16846;DHT22;8539;53.188;8.696;2023-11-19T15:36:08;10.80;99.90
16846;DHT22;8539;53.188;8.696;2023-11-19T15:38:35;10.80;99.90
16846;DHT22;8539;53.188;8.696;2023-11-19T15:41:01;10.80;99.90
16846;DHT22;8539;53.188;8.696;2023-11-19T15:43:28;10.80;99.90
16846;DHT22;8539;53.188;8.696;2023-11-19T15:45:55;10.80;99.90
16846;DHT22;8539;53.188;8.696;2023-11-19T15:48:21;10.70;99.90
16846;DHT22;8539;53.188;8.696;2023-11-19T15:50:47;10.70;99.90
16846;DHT22;8539;53.188;8.696;2023-11-19T15:53:13;10.70;99.90
16846;DHT22;8539;53.188;8.696;2023-11-19T15:55:39;10.70;99.90
16846;DHT22;8539;53.188;8.696;2023-11-19T15:58:05;10.70;99.90
16846;DHT22;8539;53.188;8.696;2023-11-19T16:00:32;10.70;99.90
16846;DHT22;8539;53.188;8.696;2023-11-19T16:02:58;10.70;99.90
16846;DHT22;8539;53.188;8.696;2023-11-19T16:05:24;10.70;99.90
16846;DHT22;8539;53.188;8.696;2023-11-19T16:07:50;10.70;99.90
16846;DHT22;8539;53.188;8.696;2023-11-19T16:10:16;10.70;99.90
16846;DHT22;8539;53.188;8.696;2023-11-19T16:12:46;10.70;99.90
16846;DHT22;8539;53.188;8.696;2023-11-19T16:15:12;10.70;99.90
16846;DHT22;8539;53.188;8.696;2023-11-19T16:17:43;10.70;99.90
16846;DHT22;8539;53.188;8.696;2023-11-19T16:20:10;10.70;99.90
16846;DHT22;8539;53.188;8.696;2023-11-19T16:22:37;10.70;99.90